sensor_id;sensor_type;location;lat;lon;timestamp;temperature;humidity
68354;DHT22;55274;43.060;25.618;2023-08-24T00:00:42;24.70;78.00
68354;DHT22;55274;43.060;25.618;2023-08-24T00:03:08;24.70;78.00
68354;DHT22;55274;43.060;25.618;2023-08-24T00:05:37;24.70;78.20
68354;DHT22;55274;43.060;25.618;2023-08-24T00:08:07;24.60;78.40
68354;DHT22;55274;43.060;25.618;2023-08-24T00:10:36;24.70;78.30
68354;DHT22;55274;43.060;25.618;2023-08-24T00:13:03;24.60;77.80
68354;DHT22;55274;43.060;25.618;2023-08-24T00:15:29;24.70;77.90
68354;DHT22;55274;43.060;25.618;2023-08-24T00:17:56;24.70;78.10
68354;DHT22;55274;43.060;25.618;2023-08-24T00:20:22;24.80;78.00
68354;DHT22;55274;43.060;25.618;2023-08-24T00:22:48;24.80;78.70
68354;DHT22;55274;43.060;25.618;2023-08-24T00:25:14;24.70;79.00
68354;DHT22;55274;43.060;25.618;2023-08-24T00:27:40;24.70;79.20
68354;DHT22;55274;43.060;25.618;2023-08-24T00:30:07;24.60;79.50
68354;DHT22;55274;43.060;25.618;2023-08-24T00:32:34;24.50;79.50
68354;DHT22;55274;43.060;25.618;2023-08-24T00:35:04;24.50;79.40
68354;DHT22;55274;43.060;25.618;2023-08-24T00:37:34;24.50;79.60
68354;DHT22;55274;43.060;25.618;2023-08-24T00:40:00;24.50;80.10
68354;DHT22;55274;43.060;25.618;2023-08-24T00:42:29;24.50;81.00
68354;DHT22;55274;43.060;25.618;2023-08-24T00:44:55;24.50;80.60
68354;DHT22;55274;43.060;25.618;2023-08-24T00:47:21;24.50;80.40
68354;DHT22;55274;43.060;25.618;2023-08-24T00:49:47;24.50;80.30
68354;DHT22;55274;43.060;25.618;2023-08-24T00:52:13;24.50;79.60
68354;DHT22;55274;43.060;25.618;2023-08-24T00:54:39;24.60;79.10
68354;DHT22;55274;43.060;25.618;2023-08-24T00:57:07;24.70;78.50
68354;DHT22;55274;43.060;25.618;2023-08-24T00:59:34;24.60;80.60
68354;DHT22;55274;43.060;25.618;2023-08-24T01:02:00;24.60;80.60
68354;DHT22;55274;43.060;25.618;2023-08-24T01:04:26;24.60;79.60
68354;DHT22;55274;43.060;25.618;2023-08-24T01:06:51;24.70;79.40
68354;DHT22;55274;43.060;25.618;2023-08-24T01:09:18;24.70;78.60
68354;DHT22;55274;43.060;25.618;2023-08-24T01:14:51;24.90;77.20
68354;DHT22;55274;43.060;25.618;2023-08-24T01:17:23;25.00;78.10
68354;DHT22;55274;43.060;25.618;2023-08-24T01:19:50;24.90;81.70
68354;DHT22;55274;43.060;25.618;2023-08-24T01:22:31;24.80;83.40
68354;DHT22;55274;43.060;25.618;2023-08-24T01:27:34;24.70;85.40
68354;DHT22;55274;43.060;25.618;2023-08-24T01:30:04;24.50;85.60
68354;DHT22;55274;43.060;25.618;2023-08-24T01:32:34;24.50;86.60
68354;DHT22;55274;43.060;25.618;2023-08-24T01:35:03;24.40;88.00
68354;DHT22;55274;43.060;25.618;2023-08-24T01:37:31;24.40;87.80
68354;DHT22;55274;43.060;25.618;2023-08-24T01:40:07;24.40;88.10
68354;DHT22;55274;43.060;25.618;2023-08-24T01:45:10;24.20;89.00
68354;DHT22;55274;43.060;25.618;2023-08-24T01:47:38;24.20;89.30
68354;DHT22;55274;43.060;25.618;2023-08-24T01:50:05;24.20;90.20
68354;DHT22;55274;43.060;25.618;2023-08-24T01:52:31;24.10;90.40
68354;DHT22;55274;43.060;25.618;2023-08-24T01:54:57;24.10;91.60
68354;DHT22;55274;43.060;25.618;2023-08-24T01:57:23;24.10;90.50
68354;DHT22;55274;43.060;25.618;2023-08-24T01:59:49;24.00;90.50
68354;DHT22;55274;43.060;25.618;2023-08-24T02:02:15;24.10;91.60
68354;DHT22;55274;43.060;25.618;2023-08-24T02:04:40;23.90;92.40
68354;DHT22;55274;43.060;25.618;2023-08-24T02:07:06;23.80;91.50
68354;DHT22;55274;43.060;25.618;2023-08-24T02:09:32;23.80;92.40
68354;DHT22;55274;43.060;25.618;2023-08-24T02:11:58;23.80;91.90
68354;DHT22;55274;43.060;25.618;2023-08-24T02:14:23;23.70;92.50
68354;DHT22;55274;43.060;25.618;2023-08-24T02:16:49;23.80;92.90
68354;DHT22;55274;43.060;25.618;2023-08-24T02:19:15;23.80;92.80
68354;DHT22;55274;43.060;25.618;2023-08-24T02:21:41;23.80;92.90
68354;DHT22;55274;43.060;25.618;2023-08-24T02:24:07;23.80;92.70
68354;DHT22;55274;43.060;25.618;2023-08-24T02:26:32;23.80;92.90
68354;DHT22;55274;43.060;25.618;2023-08-24T02:28:59;23.80;92.70
68354;DHT22;55274;43.060;25.618;2023-08-24T02:31:25;23.70;93.30
68354;DHT22;55274;43.060;25.618;2023-08-24T02:33:50;23.70;93.70
68354;DHT22;55274;43.060;25.618;2023-08-24T02:36:16;23.70;93.80
68354;DHT22;55274;43.060;25.618;2023-08-24T02:38:42;23.70;93.30
68354;DHT22;55274;43.060;25.618;2023-08-24T02:41:08;23.70;93.10
68354;DHT22;55274;43.060;25.618;2023-08-24T02:43:36;23.70;93.40
68354;DHT22;55274;43.060;25.618;2023-08-24T02:46:03;23.60;93.70
68354;DHT22;55274;43.060;25.618;2023-08-24T02:48:30;23.70;93.30
68354;DHT22;55274;43.060;25.618;2023-08-24T02:51:00;23.70;92.60
68354;DHT22;55274;43.060;25.618;2023-08-24T02:53:26;23.70;93.20
68354;DHT22;55274;43.060;25.618;2023-08-24T02:55:53;23.50;93.20
68354;DHT22;55274;43.060;25.618;2023-08-24T02:58:19;23.60;92.30
68354;DHT22;55274;43.060;25.618;2023-08-24T03:00:45;23.60;92.50
68354;DHT22;55274;43.060;25.618;2023-08-24T03:03:13;23.60;92.80
68354;DHT22;55274;43.060;25.618;2023-08-24T03:05:40;23.50;92.90
68354;DHT22;55274;43.060;25.618;2023-08-24T03:08:06;23.50;93.10
68354;DHT22;55274;43.060;25.618;2023-08-24T03:10:35;23.60;93.20
68354;DHT22;55274;43.060;25.618;2023-08-24T03:13:00;23.40;93.40
68354;DHT22;55274;43.060;25.618;2023-08-24T03:15:26;23.40;93.60
68354;DHT22;55274;43.060;25.618;2023-08-24T03:17:52;23.50;93.60
68354;DHT22;55274;43.060;25.618;2023-08-24T03:20:19;23.40;93.40
68354;DHT22;55274;43.060;25.618;2023-08-24T03:22:44;23.40;93.40
68354;DHT22;55274;43.060;25.618;2023-08-24T03:25:10;23.50;93.40
68354;DHT22;55274;43.060;25.618;2023-08-24T03:27:37;23.40;93.80
68354;DHT22;55274;43.060;25.618;2023-08-24T03:30:03;23.40;93.80
68354;DHT22;55274;43.060;25.618;2023-08-24T03:32:29;23.40;93.70
68354;DHT22;55274;43.060;25.618;2023-08-24T03:34:59;23.40;93.80
68354;DHT22;55274;43.060;25.618;2023-08-24T03:37:25;23.50;93.90
68354;DHT22;55274;43.060;25.618;2023-08-24T03:39:52;23.50;94.30
68354;DHT22;55274;43.060;25.618;2023-08-24T03:42:17;23.50;94.50
68354;DHT22;55274;43.060;25.618;2023-08-24T03:44:43;23.50;94.30
68354;DHT22;55274;43.060;25.618;2023-08-24T03:47:09;23.40;94.40
68354;DHT22;55274;43.060;25.618;2023-08-24T03:49:35;23.50;94.60
68354;DHT22;55274;43.060;25.618;2023-08-24T03:52:01;23.50;94.30
68354;DHT22;55274;43.060;25.618;2023-08-24T03:54:26;23.60;94.60
68354;DHT22;55274;43.060;25.618;2023-08-24T03:56:53;23.60;94.70
68354;DHT22;55274;43.060;25.618;2023-08-24T03:59:19;23.60;94.50
68354;DHT22;55274;43.060;25.618;2023-08-24T04:01:45;23.70;93.80
68354;DHT22;55274;43.060;25.618;2023-08-24T04:04:10;23.80;93.70
68354;DHT22;55274;43.060;25.618;2023-08-24T04:06:36;23.70;93.70
68354;DHT22;55274;43.060;25.618;2023-08-24T04:09:02;23.80;93.10
68354;DHT22;55274;43.060;25.618;2023-08-24T04:11:27;23.80;92.90
68354;DHT22;55274;43.060;25.618;2023-08-24T04:13:53;23.80;93.70
68354;DHT22;55274;43.060;25.618;2023-08-24T04:16:19;23.80;94.10
68354;DHT22;55274;43.060;25.618;2023-08-24T04:18:45;23.80;93.40
68354;DHT22;55274;43.060;25.618;2023-08-24T04:21:11;23.80;93.30
68354;DHT22;55274;43.060;25.618;2023-08-24T04:23:36;23.90;93.40
68354;DHT22;55274;43.060;25.618;2023-08-24T04:26:02;23.90;93.30
68354;DHT22;55274;43.060;25.618;2023-08-24T04:28:30;23.90;93.00
68354;DHT22;55274;43.060;25.618;2023-08-24T04:30:56;23.90;93.20
68354;DHT22;55274;43.060;25.618;2023-08-24T04:33:25;24.00;94.40
68354;DHT22;55274;43.060;25.618;2023-08-24T04:35:51;23.90;95.00
68354;DHT22;55274;43.060;25.618;2023-08-24T04:38:16;24.00;92.70
68354;DHT22;55274;43.060;25.618;2023-08-24T04:40:53;24.00;93.40
68354;DHT22;55274;43.060;25.618;2023-08-24T04:43:21;24.00;93.10
68354;DHT22;55274;43.060;25.618;2023-08-24T04:45:48;24.10;93.80
68354;DHT22;55274;43.060;25.618;2023-08-24T04:48:15;24.10;93.90
68354;DHT22;55274;43.060;25.618;2023-08-24T04:50:44;24.20;93.50
68354;DHT22;55274;43.060;25.618;2023-08-24T04:53:15;24.20;93.30
68354;DHT22;55274;43.060;25.618;2023-08-24T04:55:41;24.30;93.70
68354;DHT22;55274;43.060;25.618;2023-08-24T04:58:08;24.30;93.50
68354;DHT22;55274;43.060;25.618;2023-08-24T05:00:35;24.30;93.20
68354;DHT22;55274;43.060;25.618;2023-08-24T05:03:07;24.40;93.60
68354;DHT22;55274;43.060;25.618;2023-08-24T05:05:33;24.50;92.80
68354;DHT22;55274;43.060;25.618;2023-08-24T05:08:01;24.60;92.00
68354;DHT22;55274;43.060;25.618;2023-08-24T05:10:32;24.70;91.10
68354;DHT22;55274;43.060;25.618;2023-08-24T05:12:58;24.70;90.20
68354;DHT22;55274;43.060;25.618;2023-08-24T05:15:24;24.80;89.50
68354;DHT22;55274;43.060;25.618;2023-08-24T05:17:49;25.00;88.30
68354;DHT22;55274;43.060;25.618;2023-08-24T05:20:19;25.10;88.20
68354;DHT22;55274;43.060;25.618;2023-08-24T05:22:45;25.60;86.60
68354;DHT22;55274;43.060;25.618;2023-08-24T05:25:11;26.40;84.40
68354;DHT22;55274;43.060;25.618;2023-08-24T05:27:39;27.20;80.20
68354;DHT22;55274;43.060;25.618;2023-08-24T05:30:05;27.60;76.10
68354;DHT22;55274;43.060;25.618;2023-08-24T05:32:32;28.10;75.40
68354;DHT22;55274;43.060;25.618;2023-08-24T05:34:57;28.30;73.80
68354;DHT22;55274;43.060;25.618;2023-08-24T05:37:24;28.80;73.00
68354;DHT22;55274;43.060;25.618;2023-08-24T05:39:50;29.10;72.10
68354;DHT22;55274;43.060;25.618;2023-08-24T05:42:15;29.60;69.70
68354;DHT22;55274;43.060;25.618;2023-08-24T05:44:41;30.10;69.70
68354;DHT22;55274;43.060;25.618;2023-08-24T05:47:07;30.50;67.60
68354;DHT22;55274;43.060;25.618;2023-08-24T05:49:33;31.10;65.50
68354;DHT22;55274;43.060;25.618;2023-08-24T05:51:59;31.70;63.10
68354;DHT22;55274;43.060;25.618;2023-08-24T05:54:25;31.60;62.90
68354;DHT22;55274;43.060;25.618;2023-08-24T05:56:50;31.70;61.00
68354;DHT22;55274;43.060;25.618;2023-08-24T05:59:16;31.70;61.80
68354;DHT22;55274;43.060;25.618;2023-08-24T06:01:42;31.90;60.30
68354;DHT22;55274;43.060;25.618;2023-08-24T06:04:08;32.00;60.30
68354;DHT22;55274;43.060;25.618;2023-08-24T06:06:37;32.50;58.30
68354;DHT22;55274;43.060;25.618;2023-08-24T06:09:03;33.00;58.20
68354;DHT22;55274;43.060;25.618;2023-08-24T06:11:32;33.30;55.70
68354;DHT22;55274;43.060;25.618;2023-08-24T06:13:58;33.60;54.50
68354;DHT22;55274;43.060;25.618;2023-08-24T06:16:24;33.80;56.00
68354;DHT22;55274;43.060;25.618;2023-08-24T06:18:50;33.70;55.80
68354;DHT22;55274;43.060;25.618;2023-08-24T06:21:16;33.50;55.40
68354;DHT22;55274;43.060;25.618;2023-08-24T06:23:42;33.80;54.80
68354;DHT22;55274;43.060;25.618;2023-08-24T06:26:09;33.80;54.20
68354;DHT22;55274;43.060;25.618;2023-08-24T06:28:35;33.90;54.70
68354;DHT22;55274;43.060;25.618;2023-08-24T06:31:01;34.00;53.40
68354;DHT22;55274;43.060;25.618;2023-08-24T06:33:27;34.20;53.60
68354;DHT22;55274;43.060;25.618;2023-08-24T06:35:57;34.50;52.90
68354;DHT22;55274;43.060;25.618;2023-08-24T06:38:22;34.60;51.80
68354;DHT22;55274;43.060;25.618;2023-08-24T06:40:48;34.50;52.90
68354;DHT22;55274;43.060;25.618;2023-08-24T06:43:14;34.40;53.70
68354;DHT22;55274;43.060;25.618;2023-08-24T06:45:40;34.50;53.70
68354;DHT22;55274;43.060;25.618;2023-08-24T06:48:06;34.80;54.30
68354;DHT22;55274;43.060;25.618;2023-08-24T06:50:33;34.80;54.10
68354;DHT22;55274;43.060;25.618;2023-08-24T06:52:59;34.80;53.30
68354;DHT22;55274;43.060;25.618;2023-08-24T06:55:26;34.80;52.30
68354;DHT22;55274;43.060;25.618;2023-08-24T06:57:52;34.90;52.10
68354;DHT22;55274;43.060;25.618;2023-08-24T07:00:21;35.20;51.40
68354;DHT22;55274;43.060;25.618;2023-08-24T07:02:49;35.00;52.00
68354;DHT22;55274;43.060;25.618;2023-08-24T07:05:15;34.90;52.30
68354;DHT22;55274;43.060;25.618;2023-08-24T07:07:49;34.70;52.50
68354;DHT22;55274;43.060;25.618;2023-08-24T07:10:15;34.70;52.30
68354;DHT22;55274;43.060;25.618;2023-08-24T07:12:41;34.80;51.20
68354;DHT22;55274;43.060;25.618;2023-08-24T07:15:07;34.70;51.50
68354;DHT22;55274;43.060;25.618;2023-08-24T07:17:33;34.90;51.50
68354;DHT22;55274;43.060;25.618;2023-08-24T07:19:59;35.20;51.80
68354;DHT22;55274;43.060;25.618;2023-08-24T07:22:25;35.40;51.30
68354;DHT22;55274;43.060;25.618;2023-08-24T07:24:53;35.50;50.60
68354;DHT22;55274;43.060;25.618;2023-08-24T07:27:19;35.80;50.00
68354;DHT22;55274;43.060;25.618;2023-08-24T07:29:45;36.00;49.20
68354;DHT22;55274;43.060;25.618;2023-08-24T07:32:11;36.10;49.10
68354;DHT22;55274;43.060;25.618;2023-08-24T07:34:37;36.20;48.10
68354;DHT22;55274;43.060;25.618;2023-08-24T07:37:02;36.00;48.50
68354;DHT22;55274;43.060;25.618;2023-08-24T07:39:29;36.00;48.00
68354;DHT22;55274;43.060;25.618;2023-08-24T07:41:55;36.20;48.70
68354;DHT22;55274;43.060;25.618;2023-08-24T07:44:21;36.30;48.20
68354;DHT22;55274;43.060;25.618;2023-08-24T07:46:50;36.30;47.80
68354;DHT22;55274;43.060;25.618;2023-08-24T07:49:15;36.40;47.70
68354;DHT22;55274;43.060;25.618;2023-08-24T07:51:41;36.40;46.90
68354;DHT22;55274;43.060;25.618;2023-08-24T07:54:08;36.50;46.50
68354;DHT22;55274;43.060;25.618;2023-08-24T07:56:34;36.70;47.00
68354;DHT22;55274;43.060;25.618;2023-08-24T07:59:00;37.00;46.30
68354;DHT22;55274;43.060;25.618;2023-08-24T08:01:26;37.20;46.20
68354;DHT22;55274;43.060;25.618;2023-08-24T08:03:52;37.20;45.90
68354;DHT22;55274;43.060;25.618;2023-08-24T08:06:18;37.00;45.60
68354;DHT22;55274;43.060;25.618;2023-08-24T08:08:44;37.10;44.50
68354;DHT22;55274;43.060;25.618;2023-08-24T08:11:12;37.30;43.50
68354;DHT22;55274;43.060;25.618;2023-08-24T08:13:38;37.40;44.20
68354;DHT22;55274;43.060;25.618;2023-08-24T08:16:05;37.70;42.90
68354;DHT22;55274;43.060;25.618;2023-08-24T08:18:32;37.80;42.40
68354;DHT22;55274;43.060;25.618;2023-08-24T08:20:58;37.70;43.30
68354;DHT22;55274;43.060;25.618;2023-08-24T08:23:24;37.80;42.40
68354;DHT22;55274;43.060;25.618;2023-08-24T08:25:50;37.80;43.10
68354;DHT22;55274;43.060;25.618;2023-08-24T08:28:16;37.80;42.90
68354;DHT22;55274;43.060;25.618;2023-08-24T08:30:44;38.00;43.10
68354;DHT22;55274;43.060;25.618;2023-08-24T08:33:10;38.20;42.60
68354;DHT22;55274;43.060;25.618;2023-08-24T08:35:37;38.40;42.00
68354;DHT22;55274;43.060;25.618;2023-08-24T08:38:05;38.30;41.60
68354;DHT22;55274;43.060;25.618;2023-08-24T08:40:32;38.60;41.30
68354;DHT22;55274;43.060;25.618;2023-08-24T08:42:58;38.60;41.30
68354;DHT22;55274;43.060;25.618;2023-08-24T08:45:28;38.60;40.60
68354;DHT22;55274;43.060;25.618;2023-08-24T08:48:01;38.90;40.60
68354;DHT22;55274;43.060;25.618;2023-08-24T08:50:29;39.00;41.20
68354;DHT22;55274;43.060;25.618;2023-08-24T08:52:56;39.00;40.80
68354;DHT22;55274;43.060;25.618;2023-08-24T08:55:22;38.90;40.90
68354;DHT22;55274;43.060;25.618;2023-08-24T08:57:48;39.00;41.20
68354;DHT22;55274;43.060;25.618;2023-08-24T09:00:16;39.10;41.30
68354;DHT22;55274;43.060;25.618;2023-08-24T09:02:45;39.20;40.00
68354;DHT22;55274;43.060;25.618;2023-08-24T09:05:14;39.30;41.80
68354;DHT22;55274;43.060;25.618;2023-08-24T09:07:40;39.20;40.10
68354;DHT22;55274;43.060;25.618;2023-08-24T09:10:08;39.30;40.40
68354;DHT22;55274;43.060;25.618;2023-08-24T09:12:34;39.40;41.10
68354;DHT22;55274;43.060;25.618;2023-08-24T09:15:06;39.70;40.00
68354;DHT22;55274;43.060;25.618;2023-08-24T09:17:32;39.70;39.80
68354;DHT22;55274;43.060;25.618;2023-08-24T09:20:00;39.90;38.60
68354;DHT22;55274;43.060;25.618;2023-08-24T09:22:26;40.00;39.30
68354;DHT22;55274;43.060;25.618;2023-08-24T09:24:52;39.90;37.50
68354;DHT22;55274;43.060;25.618;2023-08-24T09:27:20;40.00;39.30
68354;DHT22;55274;43.060;25.618;2023-08-24T09:29:51;40.00;38.30
68354;DHT22;55274;43.060;25.618;2023-08-24T09:32:30;40.10;37.70
68354;DHT22;55274;43.060;25.618;2023-08-24T09:35:03;40.10;38.00
68354;DHT22;55274;43.060;25.618;2023-08-24T09:37:34;39.80;37.80
68354;DHT22;55274;43.060;25.618;2023-08-24T09:40:04;39.90;37.90
68354;DHT22;55274;43.060;25.618;2023-08-24T09:42:40;39.90;37.30
68354;DHT22;55274;43.060;25.618;2023-08-24T09:45:08;40.10;37.50
68354;DHT22;55274;43.060;25.618;2023-08-24T09:47:37;40.20;37.50
68354;DHT22;55274;43.060;25.618;2023-08-24T09:50:03;40.60;36.40
68354;DHT22;55274;43.060;25.618;2023-08-24T09:52:32;40.70;37.20
68354;DHT22;55274;43.060;25.618;2023-08-24T09:55:05;41.00;34.80
68354;DHT22;55274;43.060;25.618;2023-08-24T09:57:36;41.10;35.20
68354;DHT22;55274;43.060;25.618;2023-08-24T10:00:06;41.10;34.30
68354;DHT22;55274;43.060;25.618;2023-08-24T10:02:51;41.40;34.80
68354;DHT22;55274;43.060;25.618;2023-08-24T10:05:20;41.60;34.00
68354;DHT22;55274;43.060;25.618;2023-08-24T10:07:52;41.70;33.50
68354;DHT22;55274;43.060;25.618;2023-08-24T10:10:20;41.70;33.40
68354;DHT22;55274;43.060;25.618;2023-08-24T10:12:51;41.80;33.20
68354;DHT22;55274;43.060;25.618;2023-08-24T10:15:19;41.70;33.00
68354;DHT22;55274;43.060;25.618;2023-08-24T10:17:45;41.50;33.90
68354;DHT22;55274;43.060;25.618;2023-08-24T10:20:11;41.60;34.30
68354;DHT22;55274;43.060;25.618;2023-08-24T10:22:37;41.50;34.20
68354;DHT22;55274;43.060;25.618;2023-08-24T10:25:07;41.20;34.90
68354;DHT22;55274;43.060;25.618;2023-08-24T10:27:34;41.00;34.70
68354;DHT22;55274;43.060;25.618;2023-08-24T10:30:00;41.00;35.10
68354;DHT22;55274;43.060;25.618;2023-08-24T10:32:26;41.30;35.40
68354;DHT22;55274;43.060;25.618;2023-08-24T10:34:53;41.60;34.40
68354;DHT22;55274;43.060;25.618;2023-08-24T10:37:25;41.70;34.40
68354;DHT22;55274;43.060;25.618;2023-08-24T10:39:52;41.20;34.30
68354;DHT22;55274;43.060;25.618;2023-08-24T10:42:17;40.40;35.50
68354;DHT22;55274;43.060;25.618;2023-08-24T10:44:47;40.10;36.60
68354;DHT22;55274;43.060;25.618;2023-08-24T10:47:23;39.70;36.70
68354;DHT22;55274;43.060;25.618;2023-08-24T10:54:48;38.90;37.80
68354;DHT22;55274;43.060;25.618;2023-08-24T10:57:22;38.90;38.30
68354;DHT22;55274;43.060;25.618;2023-08-24T11:05:23;38.70;36.30
68354;DHT22;55274;43.060;25.618;2023-08-24T11:07:51;39.00;36.80
68354;DHT22;55274;43.060;25.618;2023-08-24T11:10:17;39.50;36.30
68354;DHT22;55274;43.060;25.618;2023-08-24T11:13:18;39.80;35.30
68354;DHT22;55274;43.060;25.618;2023-08-24T11:15:49;40.00;35.90
68354;DHT22;55274;43.060;25.618;2023-08-24T11:18:27;40.10;34.60
68354;DHT22;55274;43.060;25.618;2023-08-24T11:21:11;39.50;34.80
68354;DHT22;55274;43.060;25.618;2023-08-24T11:23:37;39.10;36.30
68354;DHT22;55274;43.060;25.618;2023-08-24T11:26:04;38.90;36.00
68354;DHT22;55274;43.060;25.618;2023-08-24T11:28:30;39.10;36.60
68354;DHT22;55274;43.060;25.618;2023-08-24T11:30:57;39.50;35.20
68354;DHT22;55274;43.060;25.618;2023-08-24T11:35:55;39.70;35.20
68354;DHT22;55274;43.060;25.618;2023-08-24T11:38:21;39.80;35.10
68354;DHT22;55274;43.060;25.618;2023-08-24T11:40:47;39.80;35.10
68354;DHT22;55274;43.060;25.618;2023-08-24T11:43:20;39.40;35.60
68354;DHT22;55274;43.060;25.618;2023-08-24T11:45:46;39.10;36.20
68354;DHT22;55274;43.060;25.618;2023-08-24T11:48:12;38.90;36.00
68354;DHT22;55274;43.060;25.618;2023-08-24T11:50:38;38.80;35.50
68354;DHT22;55274;43.060;25.618;2023-08-24T11:53:07;39.10;36.10
68354;DHT22;55274;43.060;25.618;2023-08-24T11:55:32;39.00;35.60
68354;DHT22;55274;43.060;25.618;2023-08-24T11:58:00;38.90;35.60
68354;DHT22;55274;43.060;25.618;2023-08-24T12:00:26;38.70;35.80
68354;DHT22;55274;43.060;25.618;2023-08-24T12:02:53;38.50;36.30
68354;DHT22;55274;43.060;25.618;2023-08-24T12:05:26;38.50;36.80
68354;DHT22;55274;43.060;25.618;2023-08-24T12:07:53;38.70;36.20
68354;DHT22;55274;43.060;25.618;2023-08-24T12:10:20;39.10;36.90
68354;DHT22;55274;43.060;25.618;2023-08-24T12:12:47;39.20;37.60
68354;DHT22;55274;43.060;25.618;2023-08-24T12:15:19;38.60;36.80
68354;DHT22;55274;43.060;25.618;2023-08-24T12:17:47;38.10;38.70
68354;DHT22;55274;43.060;25.618;2023-08-24T12:20:21;38.10;38.90
68354;DHT22;55274;43.060;25.618;2023-08-24T12:22:53;38.30;38.70
68354;DHT22;55274;43.060;25.618;2023-08-24T12:25:23;37.90;38.30
68354;DHT22;55274;43.060;25.618;2023-08-24T12:27:51;37.30;39.70
68354;DHT22;55274;43.060;25.618;2023-08-24T12:30:18;37.20;40.10
68354;DHT22;55274;43.060;25.618;2023-08-24T12:32:45;36.90;40.20
68354;DHT22;55274;43.060;25.618;2023-08-24T12:35:13;36.90;40.30
68354;DHT22;55274;43.060;25.618;2023-08-24T12:37:39;37.00;40.50
68354;DHT22;55274;43.060;25.618;2023-08-24T12:40:06;37.20;39.90
68354;DHT22;55274;43.060;25.618;2023-08-24T12:42:32;37.60;39.30
68354;DHT22;55274;43.060;25.618;2023-08-24T12:44:58;37.70;38.40
68354;DHT22;55274;43.060;25.618;2023-08-24T12:47:24;37.90;38.90
68354;DHT22;55274;43.060;25.618;2023-08-24T12:49:51;37.90;38.60
68354;DHT22;55274;43.060;25.618;2023-08-24T12:52:18;38.00;38.20
68354;DHT22;55274;43.060;25.618;2023-08-24T12:54:44;38.00;38.50
68354;DHT22;55274;43.060;25.618;2023-08-24T12:57:10;38.10;38.70
68354;DHT22;55274;43.060;25.618;2023-08-24T12:59:35;38.10;38.50
68354;DHT22;55274;43.060;25.618;2023-08-24T13:02:01;38.10;38.00
68354;DHT22;55274;43.060;25.618;2023-08-24T13:04:27;38.20;37.60
68354;DHT22;55274;43.060;25.618;2023-08-24T13:06:55;38.10;37.80
68354;DHT22;55274;43.060;25.618;2023-08-24T13:09:21;38.40;38.00
68354;DHT22;55274;43.060;25.618;2023-08-24T13:11:49;38.60;37.20
68354;DHT22;55274;43.060;25.618;2023-08-24T13:14:14;38.40;37.10
68354;DHT22;55274;43.060;25.618;2023-08-24T13:16:40;38.60;37.20
68354;DHT22;55274;43.060;25.618;2023-08-24T13:19:06;38.80;37.00
68354;DHT22;55274;43.060;25.618;2023-08-24T13:21:32;38.80;36.40
68354;DHT22;55274;43.060;25.618;2023-08-24T13:23:58;38.50;36.80
68354;DHT22;55274;43.060;25.618;2023-08-24T13:26:24;38.10;37.50
68354;DHT22;55274;43.060;25.618;2023-08-24T13:28:51;38.10;38.40
68354;DHT22;55274;43.060;25.618;2023-08-24T13:31:18;37.90;38.30
68354;DHT22;55274;43.060;25.618;2023-08-24T13:33:47;37.70;38.50
68354;DHT22;55274;43.060;25.618;2023-08-24T13:36:12;37.40;38.90
68354;DHT22;55274;43.060;25.618;2023-08-24T13:38:38;37.30;39.50
68354;DHT22;55274;43.060;25.618;2023-08-24T13:41:04;37.00;39.90
68354;DHT22;55274;43.060;25.618;2023-08-24T13:43:31;36.70;39.90
68354;DHT22;55274;43.060;25.618;2023-08-24T13:45:57;36.60;40.40
68354;DHT22;55274;43.060;25.618;2023-08-24T13:48:22;36.30;40.60
68354;DHT22;55274;43.060;25.618;2023-08-24T13:50:53;36.40;40.30
68354;DHT22;55274;43.060;25.618;2023-08-24T13:53:19;36.70;40.50
68354;DHT22;55274;43.060;25.618;2023-08-24T13:55:45;36.90;40.70
68354;DHT22;55274;43.060;25.618;2023-08-24T13:58:10;36.90;40.90
68354;DHT22;55274;43.060;25.618;2023-08-24T14:00:36;36.90;41.40
68354;DHT22;55274;43.060;25.618;2023-08-24T14:03:03;36.90;41.40
68354;DHT22;55274;43.060;25.618;2023-08-24T14:05:29;36.70;41.60
68354;DHT22;55274;43.060;25.618;2023-08-24T14:07:55;36.40;42.30
68354;DHT22;55274;43.060;25.618;2023-08-24T14:10:21;36.20;42.70
68354;DHT22;55274;43.060;25.618;2023-08-24T14:12:47;36.20;42.70
68354;DHT22;55274;43.060;25.618;2023-08-24T14:15:13;36.40;42.10
68354;DHT22;55274;43.060;25.618;2023-08-24T14:17:39;36.60;42.10
68354;DHT22;55274;43.060;25.618;2023-08-24T14:20:05;36.40;42.00
68354;DHT22;55274;43.060;25.618;2023-08-24T14:22:31;36.30;42.30
68354;DHT22;55274;43.060;25.618;2023-08-24T14:24:57;36.00;42.80
68354;DHT22;55274;43.060;25.618;2023-08-24T14:27:23;35.90;42.80
68354;DHT22;55274;43.060;25.618;2023-08-24T14:29:49;35.80;43.20
68354;DHT22;55274;43.060;25.618;2023-08-24T14:32:14;35.50;43.50
68354;DHT22;55274;43.060;25.618;2023-08-24T14:34:40;35.40;43.60
68354;DHT22;55274;43.060;25.618;2023-08-24T14:37:06;35.30;45.50
68354;DHT22;55274;43.060;25.618;2023-08-24T14:39:32;35.20;47.20
68354;DHT22;55274;43.060;25.618;2023-08-24T14:41:57;34.50;48.80
68354;DHT22;55274;43.060;25.618;2023-08-24T14:44:23;33.80;52.20
68354;DHT22;55274;43.060;25.618;2023-08-24T14:46:49;32.70;57.20
68354;DHT22;55274;43.060;25.618;2023-08-24T14:49:15;32.00;61.40
68354;DHT22;55274;43.060;25.618;2023-08-24T14:51:44;30.90;66.00
68354;DHT22;55274;43.060;25.618;2023-08-24T14:54:11;29.30;71.40
68354;DHT22;55274;43.060;25.618;2023-08-24T14:56:39;28.60;74.60
68354;DHT22;55274;43.060;25.618;2023-08-24T14:59:05;27.90;75.20
68354;DHT22;55274;43.060;25.618;2023-08-24T15:01:31;27.40;74.50
68354;DHT22;55274;43.060;25.618;2023-08-24T15:03:56;27.20;73.90
68354;DHT22;55274;43.060;25.618;2023-08-24T15:06:22;26.70;77.80
68354;DHT22;55274;43.060;25.618;2023-08-24T15:08:48;26.20;75.70
68354;DHT22;55274;43.060;25.618;2023-08-24T15:11:15;26.20;74.70
68354;DHT22;55274;43.060;25.618;2023-08-24T15:13:43;26.20;74.60
68354;DHT22;55274;43.060;25.618;2023-08-24T15:16:09;26.10;74.40
68354;DHT22;55274;43.060;25.618;2023-08-24T15:18:35;26.10;70.90
68354;DHT22;55274;43.060;25.618;2023-08-24T15:21:01;26.00;73.70
68354;DHT22;55274;43.060;25.618;2023-08-24T15:23:29;26.00;74.00
68354;DHT22;55274;43.060;25.618;2023-08-24T15:25:57;25.90;75.00
68354;DHT22;55274;43.060;25.618;2023-08-24T15:28:24;25.70;76.00
68354;DHT22;55274;43.060;25.618;2023-08-24T15:30:51;25.50;76.20
68354;DHT22;55274;43.060;25.618;2023-08-24T15:33:18;25.70;75.10
68354;DHT22;55274;43.060;25.618;2023-08-24T15:35:44;25.70;78.80